Time;durP1;ratioP1;P1;durP2;ratioP2;P2;SDS_P1;SDS_P2;PMS_P1;PMS_P2;Temp;Humidity;BMP_temperature;BMP_pressure;BME280_temperature;BME280_humidity;BME280_pressure;Samples;Min_cycle;Max_cycle;Signal;HPM_P1;HPM_P2
2023/10/14 00:01:34;;;;;;;23.88;2.63;;;8.30;99.90;;;;;;4958017;29;20043;-95
2023/10/14 00:04:04;;;;;;;23.38;3.58;;;8.30;99.90;;;;;;4961240;28;20547;-95
2023/10/14 00:06:29;;;;;;;18.30;2.70;;;8.30;99.90;;;;;;4957808;29;20067;-94
2023/10/14 00:08:58;;;;;;;27.25;4.10;;;8.20;99.90;;;;;;4955870;29;20063;-94
2023/10/14 00:11:46;;;;;;;17.38;2.45;;;8.30;99.90;;;;;;4961414;29;20524;-94
2023/10/14 00:14:16;;;;;;;18.25;2.63;;;8.20;99.90;;;;;;4969441;29;20035;-94
2023/10/14 00:16:51;;;;;;;25.10;2.67;;;8.20;99.90;;;;;;4972445;29;20042;-95
2023/10/14 00:19:22;;;;;;;17.80;2.53;;;8.20;99.90;;;;;;4957254;29;20035;-94
2023/10/14 00:21:49;;;;;;;23.85;3.58;;;8.20;99.90;;;;;;4953218;29;20028;-95
2023/10/14 00:24:25;;;;;;;18.13;2.72;;;8.20;99.90;;;;;;4971845;28;20493;-93
2023/10/14 00:26:55;;;;;;;25.05;2.60;;;8.20;99.90;;;;;;4972277;29;20045;-93
2023/10/14 00:29:20;;;;;;;15.43;2.50;;;8.20;99.90;;;;;;4973046;29;20042;-93
2023/10/14 00:31:49;;;;;;;25.70;3.20;;;8.20;99.90;;;;;;4972488;28;20023;-90
2023/10/14 00:34:22;;;;;;;19.13;3.55;;;8.20;99.90;;;;;;4975633;29;20023;-94
2023/10/14 00:36:53;;;;;;;19.40;2.90;;;8.20;99.90;;;;;;4960551;29;20077;-93
2023/10/14 00:39:24;;;;;;;;;;;8.20;99.90;;;;;;4989432;28;20035;-93
2023/10/14 00:41:50;;;;;;;;;;;8.30;99.90;;;;;;4971712;28;19914;-93
2023/10/14 00:44:16;;;;;;;16.27;2.50;;;8.20;99.90;;;;;;4973904;28;19918;-95
2023/10/14 00:46:48;;;;;;;22.85;2.60;;;8.20;99.90;;;;;;4973065;28;20028;-95
2023/10/14 00:49:15;;;;;;;15.45;1.95;;;8.20;99.90;;;;;;4974291;29;20055;-93
2023/10/14 00:51:45;;;;;;;28.38;3.22;;;8.20;99.90;;;;;;4989051;28;20499;-94
2023/10/14 00:54:12;;;;;;;19.15;2.10;;;8.30;99.90;;;;;;4966620;29;20035;-94
2023/10/14 00:56:46;;;;;;;21.20;2.53;;;8.30;99.90;;;;;;4969616;29;20024;-95
2023/10/14 00:59:14;;;;;;;18.95;3.40;;;8.30;99.90;;;;;;4971247;28;20050;-94
2023/10/14 01:01:55;;;;;;;21.60;3.22;;;8.30;99.90;;;;;;4972476;29;20012;-92
2023/10/14 01:04:31;;;;;;;17.67;2.72;;;8.30;99.90;;;;;;4975194;29;20030;-95
2023/10/14 01:07:04;;;;;;;26.88;2.53;;;8.30;99.90;;;;;;4975100;28;20019;-91
2023/10/14 01:09:54;;;;;;;16.00;2.47;;;8.30;99.90;;;;;;4966939;29;20035;-92
2023/10/14 01:12:26;;;;;;;17.87;2.33;;;8.20;99.90;;;;;;4966302;28;20031;-93
2023/10/14 01:14:52;;;;;;;18.50;2.42;;;8.20;99.90;;;;;;4968367;28;20106;-91
2023/10/14 01:17:32;;;;;;;22.27;2.83;;;8.20;99.90;;;;;;4962699;28;20030;-92
2023/10/14 01:22:41;;;;;;;26.60;2.70;;;8.20;99.90;;;;;;4967822;28;20279;-93
2023/10/14 01:25:12;;;;;;;21.27;3.17;;;8.30;99.90;;;;;;4967848;29;20043;-91
2023/10/14 01:27:38;;;;;;;20.45;2.88;;;8.30;99.90;;;;;;4989096;28;20024;-92
2023/10/14 01:30:10;;;;;;;17.35;3.70;;;8.20;99.90;;;;;;4974694;28;20027;-91
2023/10/14 01:38:13;;;;;;;16.63;3.38;;;8.20;99.90;;;;;;4965555;28;20039;-92
2023/10/14 01:40:41;;;;;;;31.08;5.93;;;8.10;99.90;;;;;;4978131;29;20035;-93
2023/10/14 01:43:08;;;;;;;26.92;3.80;;;8.10;99.90;;;;;;4974029;28;20039;-91
2023/10/14 01:45:39;;;;;;;21.20;2.72;;;8.00;99.90;;;;;;4975990;29;20042;-91
2023/10/14 01:48:12;;;;;;;29.58;3.50;;;8.00;99.90;;;;;;4976076;28;20102;-90
2023/10/14 01:50:46;;;;;;;25.60;3.08;;;8.00;99.90;;;;;;4976763;29;20015;-92
2023/10/14 01:53:21;;;;;;;23.95;3.08;;;8.00;99.90;;;;;;4974808;29;20039;-92
2023/10/14 01:55:47;;;;;;;26.60;3.40;;;8.00;99.90;;;;;;4974292;29;20027;-92
2023/10/14 01:58:22;;;;;;;20.52;2.55;;;8.00;99.90;;;;;;4972860;28;20034;-91
2023/10/14 02:00:53;;;;;;;19.45;2.83;;;7.90;99.90;;;;;;4956317;28;20095;-93
2023/10/14 02:03:23;;;;;;;19.25;2.35;;;8.00;99.90;;;;;;4946099;29;20122;-92
2023/10/14 02:05:52;;;;;;;23.65;2.90;;;8.00;99.90;;;;;;4949618;29;20126;-93
2023/10/14 02:08:22;;;;;;;29.10;3.08;;;8.00;99.90;;;;;;4947083;29;20039;-91
2023/10/14 02:10:50;;;;;;;26.17;3.08;;;8.00;99.90;;;;;;4968001;29;20291;-92
2023/10/14 02:13:21;;;;;;;23.67;2.70;;;8.00;99.90;;;;;;4948388;29;20028;-92
2023/10/14 02:15:48;;;;;;;31.08;3.45;;;8.00;99.90;;;;;;4948031;29;20051;-93
2023/10/14 02:18:22;;;;;;;16.55;3.17;;;8.00;99.90;;;;;;4951286;29;20047;-92
2023/10/14 02:20:58;;;;;;;25.95;3.13;;;8.00;99.90;;;;;;4950490;29;20043;-93
2023/10/14 02:23:31;;;;;;;33.85;4.22;;;8.00;99.90;;;;;;4950008;29;20091;-93
2023/10/14 02:25:57;;;;;;;22.73;2.88;;;8.00;99.90;;;;;;4955222;29;20032;-94
2023/10/14 02:28:39;;;;;;;30.02;3.67;;;8.00;99.90;;;;;;4970861;29;20035;-93
2023/10/14 02:31:15;;;;;;;13.05;2.45;;;8.00;99.90;;;;;;4954919;29;20039;-93
2023/10/14 02:33:45;;;;;;;26.13;3.50;;;7.90;99.90;;;;;;4957346;29;20107;-93
2023/10/14 02:36:16;;;;;;;17.38;2.47;;;8.00;99.90;;;;;;4955617;29;20023;-94
2023/10/14 02:38:44;;;;;;;21.15;3.90;;;7.90;99.90;;;;;;4949190;29;20038;-92
2023/10/14 02:41:10;;;;;;;15.57;2.85;;;7.90;99.90;;;;;;4955316;29;20469;-94
2023/10/14 02:43:38;;;;;;;23.83;2.55;;;7.90;99.90;;;;;;4951538;29;20055;-93
2023/10/14 02:46:04;;;;;;;16.65;2.45;;;7.80;99.90;;;;;;4949662;29;20188;-93
2023/10/14 02:48:52;;;;;;;23.23;2.80;;;7.80;99.90;;;;;;4953536;29;20047;-94
2023/10/14 02:51:16;;;;;;;25.20;4.70;;;7.80;99.90;;;;;;4958775;29;20027;-92
2023/10/14 02:53:43;;;;;;;21.17;3.83;;;7.80;99.90;;;;;;4961256;29;20031;-95
2023/10/14 02:56:20;;;;;;;20.48;2.97;;;7.80;99.90;;;;;;4959759;29;20011;-93
2023/10/14 02:58:46;;;;;;;28.35;4.05;;;7.80;99.90;;;;;;4958100;29;20032;-94
2023/10/14 03:01:12;;;;;;;16.58;2.60;;;7.70;99.90;;;;;;4955186;29;20039;-95
2023/10/14 03:03:42;;;;;;;21.30;2.92;;;7.70;99.90;;;;;;4956161;29;20044;-94
2023/10/14 03:06:14;;;;;;;26.10;3.67;;;7.70;99.90;;;;;;4951235;29;20047;-93
2023/10/14 03:08:46;;;;;;;22.55;3.10;;;7.70;99.90;;;;;;4967239;29;20043;-94
2023/10/14 03:11:21;;;;;;;20.13;2.92;;;7.60;99.90;;;;;;4952314;29;20058;-94
2023/10/14 03:13:47;;;;;;;23.52;2.40;;;7.60;99.90;;;;;;4949670;29;20019;-94
2023/10/14 03:16:17;;;;;;;24.38;3.80;;;7.60;99.90;;;;;;4952978;29;20034;-94
2023/10/14 03:18:44;;;;;;;22.13;3.72;;;7.60;99.90;;;;;;4948272;29;20035;-94
2023/10/14 03:21:10;;;;;;;21.88;3.10;;;7.60;99.90;;;;;;4951759;29;20051;-94
2023/10/14 03:23:38;;;;;;;24.23;2.92;;;7.70;99.90;;;;;;4947294;29;20034;-92
2023/10/14 03:26:12;;;;;;;27.27;3.72;;;7.70;99.90;;;;;;4946802;29;20031;-95
2023/10/14 03:28:38;;;;;;;21.73;4.28;;;7.70;99.90;;;;;;4947193;29;20043;-93
2023/10/14 03:31:07;;;;;;;21.33;2.90;;;7.70;99.90;;;;;;4950259;29;20031;-93
2023/10/14 03:33:42;;;;;;;16.50;2.83;;;7.70;99.90;;;;;;4954634;29;20136;-94
2023/10/14 03:36:15;;;;;;;15.13;2.47;;;7.70;99.90;;;;;;4956661;29;20024;-95
2023/10/14 03:38:41;;;;;;;21.05;3.40;;;7.70;99.90;;;;;;4955990;29;20122;-94
2023/10/14 03:41:21;;;;;;;17.70;2.70;;;7.60;99.90;;;;;;4955715;29;20035;-93
2023/10/14 03:43:58;;;;;;;19.77;2.58;;;7.60;99.90;;;;;;4957120;29;20039;-94
2023/10/14 03:48:57;;;;;;;14.05;2.20;;;7.50;99.90;;;;;;4949831;29;20439;-94
2023/10/14 03:51:27;;;;;;;19.67;2.30;;;7.50;99.90;;;;;;4950825;29;20027;-93
2023/10/14 03:53:57;;;;;;;9.38;1.85;;;7.50;99.90;;;;;;4953442;29;20024;-94
2023/10/14 03:56:25;;;;;;;14.25;3.10;;;7.50;99.90;;;;;;4949205;29;20108;-94
2023/10/14 03:59:00;;;;;;;18.00;2.17;;;7.40;99.90;;;;;;4955024;29;20103;-94
2023/10/14 04:04:18;;;;;;;15.63;2.20;;;7.40;99.90;;;;;;4948552;29;20046;-91
2023/10/14 04:06:52;;;;;;;14.05;1.90;;;7.40;99.90;;;;;;4944436;29;20020;-94
2023/10/14 04:09:24;;;;;;;8.57;1.90;;;7.30;99.90;;;;;;4946680;29;20027;-94
2023/10/14 04:11:53;;;;;;;16.63;2.00;;;7.30;99.90;;;;;;4948062;29;20020;-95
2023/10/14 04:14:27;;;;;;;11.95;1.55;;;7.30;99.90;;;;;;4951527;29;20039;-94
2023/10/14 04:17:18;;;;;;;5.80;1.50;;;7.20;99.90;;;;;;4957115;29;20054;-94
2023/10/14 04:22:31;;;;;;;7.40;1.95;;;7.20;99.90;;;;;;4956980;29;19954;-94
2023/10/14 04:35:25;;;;;;;12.52;1.67;;;7.10;99.90;;;;;;4958321;29;20103;-93
2023/10/14 04:37:51;;;;;;;11.73;1.70;;;7.00;99.90;;;;;;4955069;29;20054;-95
2023/10/14 04:46:13;;;;;;;9.45;1.35;;;7.10;99.90;;;;;;4938569;29;20127;-92
2023/10/14 04:51:06;;;;;;;9.68;1.58;;;7.20;99.90;;;;;;4940971;29;20083;-95
2023/10/14 04:53:31;;;;;;;8.07;1.40;;;7.20;99.90;;;;;;4945795;29;20107;-93
2023/10/14 04:56:02;;;;;;;7.30;1.08;;;7.20;99.90;;;;;;4949132;29;20027;-94
2023/10/14 04:58:28;;;;;;;8.15;1.20;;;7.20;99.90;;;;;;4948186;29;20031;-94
2023/10/14 05:01:00;;;;;;;13.93;1.73;;;7.10;99.90;;;;;;4948820;29;20035;-92
2023/10/14 05:03:28;;;;;;;8.35;1.38;;;7.10;99.90;;;;;;4954753;29;20066;-95
2023/10/14 05:05:56;;;;;;;10.43;1.10;;;7.10;99.90;;;;;;4970985;29;20078;-91
2023/10/14 05:08:24;;;;;;;7.07;1.30;;;7.10;99.90;;;;;;4955605;29;20038;-93
2023/10/14 05:10:53;;;;;;;9.80;1.50;;;7.00;99.90;;;;;;4956109;29;20034;-93
2023/10/14 05:13:33;;;;;;;9.07;1.60;;;7.00;99.90;;;;;;4955923;29;20024;-91
2023/10/14 05:16:15;;;;;;;8.73;1.40;;;6.90;99.90;;;;;;4953782;29;20032;-91
2023/10/14 05:18:43;;;;;;;5.25;1.38;;;6.90;99.90;;;;;;4954194;29;20043;-91
2023/10/14 05:21:20;;;;;;;7.15;1.20;;;6.90;99.90;;;;;;4956984;29;20027;-89
2023/10/14 05:23:46;;;;;;;6.65;1.00;;;6.90;99.90;;;;;;4953861;29;20036;-92
2023/10/14 05:26:14;;;;;;;12.30;2.47;;;6.80;99.90;;;;;;4955106;29;20101;-91
2023/10/14 05:28:42;;;;;;;9.52;1.60;;;6.80;99.90;;;;;;4970369;29;20039;-91
2023/10/14 05:31:08;;;;;;;10.30;2.03;;;6.80;99.90;;;;;;4956608;29;20018;-93
2023/10/14 05:33:42;;;;;;;15.00;3.35;;;6.80;99.90;;;;;;4972210;29;20038;-92
2023/10/14 05:36:08;;;;;;;9.63;1.90;;;6.70;99.90;;;;;;4956920;29;20421;-93
2023/10/14 05:38:33;;;;;;;15.00;1.95;;;6.70;99.90;;;;;;4958157;29;20028;-92
2023/10/14 05:41:01;;;;;;;8.70;1.45;;;6.70;99.90;;;;;;4974426;28;20023;-94
2023/10/14 05:43:27;;;;;;;15.57;2.25;;;6.70;99.90;;;;;;4972178;28;20099;-94
2023/10/14 05:45:53;;;;;;;9.70;1.83;;;6.70;99.90;;;;;;4969218;29;20027;-94
2023/10/14 05:48:26;;;;;;;10.02;1.70;;;6.60;99.90;;;;;;4970241;29;20079;-93
2023/10/14 05:50:54;;;;;;;10.93;1.70;;;6.60;99.90;;;;;;4957245;29;20035;-95
2023/10/14 05:53:20;;;;;;;13.07;1.52;;;6.60;99.90;;;;;;4968946;29;20033;-94
2023/10/14 05:55:47;;;;;;;12.93;1.80;;;6.50;99.90;;;;;;4972665;28;20059;-95
2023/10/14 05:58:31;;;;;;;10.38;1.42;;;6.50;99.90;;;;;;4973928;28;20011;-93
2023/10/14 06:00:58;;;;;;;14.13;1.42;;;6.50;99.90;;;;;;4974605;28;20023;-94
2023/10/14 06:03:23;;;;;;;11.45;1.42;;;6.50;99.90;;;;;;4968754;29;20035;-94
2023/10/14 06:05:49;;;;;;;6.22;1.17;;;6.50;99.90;;;;;;4950962;28;20063;-90
2023/10/14 06:08:18;;;;;;;15.82;1.83;;;6.50;99.90;;;;;;4953614;28;20019;-90
2023/10/14 06:10:44;;;;;;;10.07;1.67;;;6.50;99.90;;;;;;4954286;29;20058;-90
2023/10/14 06:13:10;;;;;;;10.95;1.60;;;6.50;99.90;;;;;;4953119;29;20020;-91
2023/10/14 06:15:41;;;;;;;10.65;1.77;;;6.50;99.90;;;;;;4954353;28;20050;-90
2023/10/14 06:18:13;;;;;;;14.23;1.40;;;6.50;99.90;;;;;;4953476;29;20027;-90
2023/10/14 06:20:41;;;;;;;10.45;1.30;;;6.60;99.90;;;;;;4956825;28;20027;-91
2023/10/14 06:23:08;;;;;;;11.05;1.50;;;6.60;99.90;;;;;;4955502;29;20034;-91
2023/10/14 06:25:36;;;;;;;10.10;1.30;;;6.60;99.90;;;;;;4956693;29;20106;-91
2023/10/14 06:28:03;;;;;;;7.68;1.45;;;6.60;99.90;;;;;;4957368;28;20015;-90
2023/10/14 06:30:29;;;;;;;11.75;1.67;;;6.60;99.90;;;;;;4956250;29;20110;-90
2023/10/14 06:32:58;;;;;;;7.90;1.33;;;6.60;99.90;;;;;;4956064;29;20031;-91
2023/10/14 06:35:26;;;;;;;7.32;1.65;;;6.60;99.90;;;;;;4954307;29;20030;-91
2023/10/14 06:37:53;;;;;;;9.52;1.20;;;6.50;99.90;;;;;;4958114;29;20058;-90
2023/10/14 06:40:19;;;;;;;9.38;1.20;;;6.50;99.90;;;;;;4960040;29;20061;-90
2023/10/14 06:42:49;;;;;;;4.72;1.10;;;6.50;99.90;;;;;;4959522;29;20023;-91
2023/10/14 06:45:21;;;;;;;13.48;1.85;;;6.50;99.90;;;;;;4957327;29;20039;-90
2023/10/14 06:47:50;;;;;;;6.82;1.15;;;6.40;99.90;;;;;;4956137;29;20047;-91
2023/10/14 06:50:29;;;;;;;6.80;1.17;;;6.40;99.90;;;;;;4956135;29;20071;-90
2023/10/14 06:52:59;;;;;;;10.77;1.60;;;6.40;99.90;;;;;;4955831;29;20035;-90
2023/10/14 06:55:37;;;;;;;12.38;1.23;;;6.40;99.90;;;;;;4955559;29;20023;-92
2023/10/14 06:58:06;;;;;;;11.65;1.10;;;6.40;99.90;;;;;;4953331;29;20031;-91
2023/10/14 07:00:32;;;;;;;5.95;1.05;;;6.40;99.90;;;;;;4956464;29;20401;-90
2023/10/14 07:03:02;;;;;;;7.28;1.15;;;6.40;99.90;;;;;;4957200;28;20135;-91
2023/10/14 07:05:30;;;;;;;3.65;0.77;;;6.40;99.90;;;;;;4955582;29;20031;-92
2023/10/14 07:07:59;;;;;;;3.92;1.10;;;6.40;99.90;;;;;;4954683;29;20079;-91
2023/10/14 07:10:28;;;;;;;7.55;1.23;;;6.40;99.90;;;;;;4955603;29;20038;-92
2023/10/14 07:12:58;;;;;;;6.07;1.27;;;6.40;99.90;;;;;;4955588;29;20049;-91
2023/10/14 07:15:31;;;;;;;7.93;1.00;;;6.40;99.90;;;;;;4952961;29;20046;-91
2023/10/14 07:17:59;;;;;;;6.45;1.30;;;6.40;99.90;;;;;;4955556;29;20024;-91
2023/10/14 07:20:29;;;;;;;4.63;1.02;;;6.40;99.90;;;;;;4955483;29;20126;-91
2023/10/14 07:22:59;;;;;;;4.32;1.00;;;6.40;99.90;;;;;;4955643;29;20023;-91
2023/10/14 07:25:36;;;;;;;9.25;1.48;;;6.40;99.90;;;;;;4956348;29;20043;-91
2023/10/14 07:28:06;;;;;;;5.07;1.13;;;6.40;99.90;;;;;;4956285;28;20027;-90
2023/10/14 07:30:34;;;;;;;7.82;1.05;;;6.40;99.90;;;;;;4956747;28;20135;-90
2023/10/14 07:33:01;;;;;;;5.00;1.13;;;6.50;99.90;;;;;;4955501;29;20028;-91
2023/10/14 07:35:27;;;;;;;5.45;1.13;;;6.50;99.90;;;;;;4955069;29;20050;-91
2023/10/14 07:37:53;;;;;;;11.18;1.13;;;6.50;99.90;;;;;;4955592;29;20069;-90
2023/10/14 07:40:22;;;;;;;7.47;1.98;;;6.60;99.90;;;;;;4955278;29;20058;-89
2023/10/14 07:42:59;;;;;;;5.37;0.83;;;6.60;99.90;;;;;;4956530;28;20055;-90
2023/10/14 07:45:28;;;;;;;8.88;1.20;;;6.60;99.90;;;;;;4956384;28;20836;-90
2023/10/14 07:47:57;;;;;;;5.43;0.93;;;6.70;99.90;;;;;;4955179;29;20058;-92
2023/10/14 07:50:24;;;;;;;9.38;1.50;;;6.70;99.90;;;;;;4953481;29;20089;-90
2023/10/14 07:52:54;;;;;;;10.35;1.60;;;6.70;99.90;;;;;;4955054;29;20481;-91
2023/10/14 07:55:25;;;;;;;12.32;1.65;;;6.80;99.90;;;;;;4955414;29;20038;-92
2023/10/14 07:57:51;;;;;;;;;;;6.80;99.90;;;;;;4953902;29;20497;-90
2023/10/14 08:00:17;;;;;;;7.65;1.15;;;6.90;99.90;;;;;;4956424;28;19950;-91
2023/10/14 08:02:43;;;;;;;4.70;0.93;;;7.00;99.90;;;;;;4955170;29;20424;-90
2023/10/14 08:05:11;;;;;;;7.18;1.40;;;7.00;99.90;;;;;;4954431;29;20051;-90
2023/10/14 08:07:45;;;;;;;9.65;1.27;;;7.10;99.90;;;;;;4954468;29;20023;-90
2023/10/14 08:10:18;;;;;;;13.60;1.67;;;7.20;99.90;;;;;;4954868;29;20439;-90
2023/10/14 08:12:47;;;;;;;4.82;1.30;;;7.30;99.90;;;;;;4956262;28;20027;-93
2023/10/14 08:15:14;;;;;;;6.50;1.75;;;7.40;99.90;;;;;;4955241;29;20019;-92
2023/10/14 08:17:41;;;;;;;10.68;1.33;;;7.50;99.90;;;;;;4956039;29;20034;-93
2023/10/14 08:20:12;;;;;;;12.10;1.92;;;7.60;99.90;;;;;;4957385;28;20114;-93
2023/10/14 08:22:39;;;;;;;;;;;7.60;99.90;;;;;;4960829;29;20023;-93
2023/10/14 08:25:08;;;;;;;8.63;1.40;;;7.70;99.90;;;;;;4955981;29;20302;-94
2023/10/14 08:27:34;;;;;;;13.57;1.42;;;7.80;99.90;;;;;;4958575;29;20536;-90
2023/10/14 08:30:02;;;;;;;9.60;1.75;;;7.80;99.90;;;;;;4956960;29;20027;-93
2023/10/14 08:32:37;;;;;;;12.43;1.85;;;7.90;99.90;;;;;;4955561;29;20023;-90
2023/10/14 08:35:14;;;;;;;7.10;1.10;;;7.90;99.90;;;;;;4957212;29;20020;-90
2023/10/14 08:37:43;;;;;;;11.13;1.48;;;7.90;99.90;;;;;;4957020;29;20054;-89
2023/10/14 08:40:16;;;;;;;15.82;2.05;;;8.00;99.90;;;;;;4956580;28;20051;-90
2023/10/14 08:42:49;;;;;;;10.35;1.83;;;7.90;99.90;;;;;;4955179;29;20031;-91
2023/10/14 08:45:22;;;;;;;9.95;1.92;;;7.90;99.90;;;;;;4955576;28;20039;-88
2023/10/14 08:47:52;;;;;;;12.75;1.80;;;7.90;99.90;;;;;;4954708;29;20047;-91
2023/10/14 08:50:24;;;;;;;10.37;1.30;;;7.90;99.90;;;;;;4954053;29;20031;-89
2023/10/14 08:52:53;;;;;;;10.60;1.45;;;8.00;99.90;;;;;;4954366;29;20023;-90
2023/10/14 08:55:20;;;;;;;9.55;1.60;;;8.00;99.90;;;;;;4954428;29;20512;-90
2023/10/14 08:57:47;;;;;;;10.48;2.15;;;8.10;99.90;;;;;;4954441;29;20043;-90
2023/10/14 09:00:20;;;;;;;7.70;1.50;;;8.10;99.90;;;;;;4954376;29;20019;-90
2023/10/14 09:02:53;;;;;;;12.70;1.80;;;8.10;99.90;;;;;;4954215;29;20035;-91
2023/10/14 09:05:20;;;;;;;12.32;1.73;;;8.20;99.90;;;;;;4953110;29;20036;-92
2023/10/14 09:07:49;;;;;;;8.93;1.48;;;8.30;99.90;;;;;;4954115;29;20046;-91
2023/10/14 09:10:18;;;;;;;11.95;2.17;;;8.40;99.90;;;;;;4951607;29;20030;-92
2023/10/14 09:13:05;;;;;;;9.90;1.63;;;8.50;99.90;;;;;;4954029;29;20094;-93
2023/10/14 09:15:32;;;;;;;9.98;1.70;;;8.60;99.90;;;;;;4952863;29;20047;-91
2023/10/14 09:17:58;;;;;;;10.23;1.33;;;8.70;99.90;;;;;;4953449;29;20023;-92
2023/10/14 09:20:34;;;;;;;7.50;1.30;;;8.80;99.90;;;;;;4953840;29;20489;-90
2023/10/14 09:23:16;;;;;;;10.80;1.52;;;8.90;99.90;;;;;;4951610;29;20031;-92
2023/10/14 09:25:45;;;;;;;10.32;1.90;;;9.00;99.90;;;;;;4968512;28;20043;-91
2023/10/14 09:28:12;;;;;;;10.82;1.85;;;9.10;99.90;;;;;;4954756;29;20051;-92
2023/10/14 09:30:44;;;;;;;12.73;2.05;;;9.30;99.90;;;;;;4956846;29;20118;-93
2023/10/14 09:33:17;;;;;;;18.83;2.55;;;9.50;99.90;;;;;;4954235;29;20038;-94
2023/10/14 09:35:48;;;;;;;8.20;1.38;;;9.70;99.90;;;;;;4954886;28;20500;-91
2023/10/14 09:38:18;;;;;;;8.05;1.05;;;9.90;99.90;;;;;;4955091;28;20027;-92
2023/10/14 09:40:50;;;;;;;13.60;2.03;;;10.10;99.90;;;;;;4951337;29;20039;-91
2023/10/14 09:43:18;;;;;;;8.98;1.30;;;10.30;99.90;;;;;;4953221;29;20110;-89
2023/10/14 09:45:47;;;;;;;12.68;1.88;;;10.40;99.90;;;;;;4953676;29;20037;-91
2023/10/14 09:48:15;;;;;;;9.75;1.70;;;10.70;99.90;;;;;;4951226;29;20054;-90
2023/10/14 09:50:43;;;;;;;17.40;1.90;;;10.90;99.90;;;;;;4956243;28;20035;-91
2023/10/14 09:53:13;;;;;;;16.67;2.22;;;11.10;99.90;;;;;;4958953;28;20055;-88
2023/10/14 09:55:43;;;;;;;10.45;2.72;;;11.30;99.90;;;;;;4957538;29;20124;-91
2023/10/14 09:58:12;;;;;;;13.90;1.75;;;11.40;99.90;;;;;;4956712;29;20035;-92
2023/10/14 10:00:38;;;;;;;13.48;1.92;;;11.60;99.90;;;;;;4957073;29;20139;-89
2023/10/14 10:03:06;;;;;;;7.13;1.48;;;11.70;99.90;;;;;;4957918;28;20051;-90
2023/10/14 10:05:41;;;;;;;6.68;1.70;;;11.90;99.90;;;;;;4958039;29;20035;-91
2023/10/14 10:08:19;;;;;;;10.25;1.77;;;12.00;99.90;;;;;;4958263;29;20059;-91
2023/10/14 10:10:47;;;;;;;9.60;1.88;;;12.20;99.90;;;;;;4959763;28;20029;-90
2023/10/14 10:13:14;;;;;;;10.10;1.65;;;12.40;99.40;;;;;;4959261;28;20027;-90
2023/10/14 10:15:45;;;;;;;11.45;3.45;;;12.50;98.30;;;;;;4961157;28;20041;-90
2023/10/14 10:18:16;;;;;;;17.38;2.03;;;12.50;98.20;;;;;;4957553;29;20023;-90
2023/10/14 10:20:50;;;;;;;;;;;12.60;98.00;;;;;;4957326;29;20493;-90
2023/10/14 10:23:16;;;;;;;7.97;1.55;;;12.80;98.00;;;;;;4957069;29;19906;-90
2023/10/14 10:25:50;;;;;;;9.98;1.77;;;13.00;97.10;;;;;;4958662;28;20031;-90
2023/10/14 10:28:28;;;;;;;10.63;1.80;;;13.20;96.90;;;;;;4958606;28;20298;-90
2023/10/14 10:31:15;;;;;;;10.80;1.70;;;13.30;96.30;;;;;;4957516;29;20456;-91
2023/10/14 10:33:59;;;;;;;10.05;1.35;;;13.30;95.00;;;;;;4958009;29;20031;-91
2023/10/14 10:36:30;;;;;;;13.95;1.80;;;13.40;94.40;;;;;;4973842;28;20023;-89
2023/10/14 10:39:16;;;;;;;19.40;1.58;;;13.50;94.00;;;;;;4958108;28;20050;-92
2023/10/14 10:41:42;;;;;;;6.28;1.33;;;13.60;93.20;;;;;;4958066;28;20097;-93
2023/10/14 10:44:11;;;;;;;10.18;1.30;;;13.80;92.50;;;;;;4957752;28;20042;-92
2023/10/14 10:46:41;;;;;;;9.93;1.90;;;14.00;92.40;;;;;;4957978;28;20065;-89
2023/10/14 10:49:10;;;;;;;;;;;14.20;91.70;;;;;;4957906;28;20409;-89
2023/10/14 10:51:41;;;;;;;12.63;1.60;;;14.30;91.20;;;;;;4957539;28;20293;-91
2023/10/14 10:54:10;;;;;;;12.30;1.75;;;14.50;90.50;;;;;;4958116;28;20030;-89
2023/10/14 10:56:36;;;;;;;7.50;1.42;;;14.40;88.40;;;;;;4960778;28;20024;-91
2023/10/14 10:59:04;;;;;;;13.55;1.92;;;14.40;86.90;;;;;;4960123;29;20054;-91
2023/10/14 11:01:33;;;;;;;11.18;1.80;;;14.40;86.70;;;;;;4958337;28;20107;-91
2023/10/14 11:04:03;;;;;;;12.70;2.30;;;14.40;86.40;;;;;;4955819;28;20023;-91
2023/10/14 11:06:32;;;;;;;10.75;1.92;;;14.60;86.60;;;;;;4956388;29;20039;-93
2023/10/14 11:08:58;;;;;;;13.45;2.25;;;14.70;85.90;;;;;;4956793;29;20039;-90
2023/10/14 11:11:34;;;;;;;14.63;2.10;;;14.90;84.80;;;;;;4957291;28;20146;-92
2023/10/14 11:14:00;;;;;;;13.80;1.92;;;15.10;84.40;;;;;;4957320;28;20087;-91
2023/10/14 11:16:29;;;;;;;7.65;1.83;;;15.30;83.90;;;;;;4956695;29;20128;-91
2023/10/14 11:18:56;;;;;;;11.80;1.80;;;15.60;83.30;;;;;;4957659;28;20039;-92
2023/10/14 11:21:27;;;;;;;17.73;2.95;;;15.80;82.70;;;;;;4955829;29;20516;-91
2023/10/14 11:23:53;;;;;;;;;;;15.90;81.00;;;;;;4956287;29;20094;-91
2023/10/14 11:26:20;;;;;;;9.43;1.88;;;16.00;80.10;;;;;;4956289;29;19953;-91
2023/10/14 11:28:48;;;;;;;11.77;2.20;;;15.90;79.10;;;;;;4957215;28;20023;-91
2023/10/14 11:31:14;;;;;;;7.93;1.52;;;15.90;78.70;;;;;;4956677;29;20106;-90
2023/10/14 11:33:47;;;;;;;11.18;1.45;;;16.00;78.80;;;;;;4955898;29;20031;-90
2023/10/14 11:36:17;;;;;;;7.35;1.60;;;16.10;77.90;;;;;;4957442;28;20031;-91
2023/10/14 11:38:46;;;;;;;14.27;1.67;;;16.10;77.90;;;;;;4957545;29;20122;-91
2023/10/14 11:41:13;;;;;;;9.82;1.65;;;16.10;77.70;;;;;;4958347;29;20033;-90
2023/10/14 11:43:45;;;;;;;10.57;1.55;;;16.00;78.00;;;;;;4960153;28;20027;-90
2023/10/14 11:46:12;;;;;;;11.15;1.83;;;15.70;78.10;;;;;;4957505;29;20034;-91
2023/10/14 11:48:38;;;;;;;6.10;1.42;;;15.30;78.70;;;;;;4957364;28;20047;-90
2023/10/14 11:51:11;;;;;;;10.95;1.50;;;14.70;78.90;;;;;;4956370;29;20385;-91
2023/10/14 11:53:43;;;;;;;10.90;1.88;;;14.30;80.50;;;;;;4956855;28;20023;-91
2023/10/14 11:56:13;;;;;;;12.02;1.98;;;13.90;82.00;;;;;;4956594;29;20030;-90
2023/10/14 11:58:42;;;;;;;14.15;2.20;;;13.50;83.00;;;;;;4956151;29;20033;-91
2023/10/14 12:01:12;;;;;;;8.70;1.83;;;13.20;84.20;;;;;;4956376;29;20042;-91
2023/10/14 12:03:39;;;;;;;7.80;1.42;;;13.40;85.80;;;;;;4956377;28;20062;-90
2023/10/14 12:06:06;;;;;;;9.93;1.30;;;13.80;86.50;;;;;;4955591;29;20460;-90
2023/10/14 12:08:38;;;;;;;6.75;2.03;;;14.40;86.70;;;;;;4956829;28;20059;-92
2023/10/14 12:11:05;;;;;;;8.93;2.10;;;14.90;85.50;;;;;;4955398;29;20027;-92
2023/10/14 12:13:31;;;;;;;8.32;1.48;;;15.40;84.10;;;;;;4956438;28;20532;-92
2023/10/14 12:15:57;;;;;;;7.90;1.15;;;15.70;82.50;;;;;;4955382;29;20122;-94
2023/10/14 12:18:23;;;;;;;5.85;1.48;;;15.60;81.40;;;;;;4955192;29;20062;-91
2023/10/14 12:20:49;;;;;;;6.03;1.40;;;15.30;82.20;;;;;;4955129;29;20023;-91
2023/10/14 12:23:19;;;;;;;8.02;1.30;;;14.80;82.80;;;;;;4955016;29;20107;-93
2023/10/14 12:25:46;;;;;;;11.95;1.58;;;14.20;84.00;;;;;;4955167;29;20056;-93
2023/10/14 12:28:18;;;;;;;6.28;1.33;;;13.60;85.60;;;;;;4955556;29;20034;-93
2023/10/14 12:30:50;;;;;;;6.25;1.88;;;13.20;87.30;;;;;;4955642;29;20085;-91
2023/10/14 12:33:19;;;;;;;6.68;1.50;;;12.80;88.80;;;;;;4956471;28;20501;-95
2023/10/14 12:35:45;;;;;;;7.10;1.45;;;12.40;90.00;;;;;;4971326;28;20054;-94
2023/10/14 12:38:11;;;;;;;13.35;1.95;;;12.20;90.70;;;;;;4955274;29;20024;-94
2023/10/14 12:40:39;;;;;;;9.65;1.77;;;11.90;91.20;;;;;;4954964;29;20034;-95
2023/10/14 12:43:05;;;;;;;9.45;1.90;;;11.70;91.90;;;;;;4954759;29;20073;-92
2023/10/14 12:45:32;;;;;;;14.80;2.22;;;11.60;92.70;;;;;;4954755;29;20042;-93
2023/10/14 12:48:09;;;;;;;6.68;1.25;;;11.80;93.90;;;;;;4954958;29;20058;-95
2023/10/14 12:50:40;;;;;;;6.53;1.30;;;12.40;95.00;;;;;;4955185;29;20031;-91
2023/10/14 12:53:08;;;;;;;5.25;1.35;;;13.20;95.00;;;;;;4955242;28;20520;-91
2023/10/14 12:55:39;;;;;;;8.63;1.50;;;13.90;94.10;;;;;;4955509;28;20026;-91
2023/10/14 12:58:07;;;;;;;6.63;1.85;;;14.40;93.00;;;;;;4954003;29;20070;-92
2023/10/14 13:00:35;;;;;;;5.38;1.35;;;14.90;91.20;;;;;;4954356;29;20067;-93
2023/10/14 13:03:02;;;;;;;7.05;1.40;;;15.30;90.10;;;;;;4957436;28;20062;-93
2023/10/14 13:05:28;;;;;;;6.85;1.50;;;15.60;88.60;;;;;;4955847;28;20103;-93
2023/10/14 13:07:55;;;;;;;6.80;1.23;;;16.10;87.00;;;;;;4971974;28;20061;-92
2023/10/14 13:10:23;;;;;;;5.00;0.95;;;16.40;85.70;;;;;;4954995;29;20485;-93
2023/10/14 13:12:50;;;;;;;8.15;1.42;;;16.90;85.10;;;;;;4955822;29;20059;-93
2023/10/14 13:15:25;;;;;;;4.80;1.15;;;17.30;82.80;;;;;;4955332;29;20031;-92
2023/10/14 13:17:56;;;;;;;3.50;1.38;;;17.40;79.60;;;;;;4954807;28;20030;-90
2023/10/14 13:20:26;;;;;;;2.88;1.00;;;17.20;78.20;;;;;;4953487;29;20046;-92
2023/10/14 13:22:56;;;;;;;9.25;0.95;;;16.80;76.70;;;;;;4955036;28;20027;-91
2023/10/14 13:25:22;;;;;;;4.88;0.90;;;16.20;76.00;;;;;;4954796;28;20037;-91
2023/10/14 13:27:51;;;;;;;0.80;0.60;;;15.40;75.20;;;;;;4959181;28;20032;-90
2023/10/14 13:30:23;;;;;;;4.93;0.73;;;14.50;77.60;;;;;;4957888;29;20038;-90
2023/10/14 13:32:56;;;;;;;6.45;0.88;;;13.40;81.10;;;;;;4958304;29;20023;-89
2023/10/14 13:35:23;;;;;;;3.58;0.80;;;12.60;84.30;;;;;;4958343;29;20019;-91
2023/10/14 13:37:52;;;;;;;3.88;1.15;;;12.00;86.90;;;;;;4957953;29;20126;-92
2023/10/14 13:40:21;;;;;;;5.20;0.75;;;11.60;89.40;;;;;;4958385;29;20477;-92